createdAt,value
2022-12-08T00:01:25.501Z,73.24
2022-12-08T00:07:15.341Z,73.01
2022-12-08T00:12:46.658Z,73.48
2022-12-08T00:18:17.930Z,73.43
2022-12-08T00:23:48.968Z,73.29
2022-12-08T00:29:20.296Z,73.32
2022-12-08T00:34:51.379Z,73.09
2022-12-08T00:40:22.672Z,73.59
2022-12-08T00:45:53.693Z,74.13
2022-12-08T00:51:24.966Z,73.61
2022-12-08T00:56:55.966Z,73.22
2022-12-08T01:02:27.069Z,73.46
2022-12-08T01:07:58.533Z,73.79
2022-12-08T01:13:30.257Z,73.90
2022-12-08T01:19:02.118Z,73.92
2022-12-08T01:24:33.287Z,73.97
2022-12-08T01:30:05.184Z,72.95
2022-12-08T01:35:37.343Z,73.57
2022-12-08T01:41:09.737Z,73.29
2022-12-08T01:46:43.673Z,73.65
2022-12-08T01:52:16.435Z,73.54
2022-12-08T01:57:50.177Z,73.50
2022-12-08T02:03:25.880Z,73.56
2022-12-08T02:08:58.537Z,73.70
2022-12-08T02:14:29.831Z,73.42
2022-12-08T02:20:19.636Z,72.94
2022-12-08T02:26:00.325Z,73.75
2022-12-08T02:32:04.810Z,73.17
2022-12-08T02:37:40.575Z,73.25
2022-12-08T02:43:28.572Z,73.76
2022-12-08T02:49:00.174Z,73.56
2022-12-08T02:54:31.482Z,74.04
2022-12-08T03:00:10.183Z,73.98
2022-12-08T03:05:47.255Z,73.35
2022-12-08T03:11:28.602Z,73.57
2022-12-08T03:17:00.506Z,73.46
2022-12-08T03:22:32.143Z,73.30
2022-12-08T03:28:03.328Z,74.07
2022-12-08T03:33:37.881Z,73.71
2022-12-08T03:39:09.027Z,73.94
2022-12-08T03:44:40.366Z,73.71
2022-12-08T03:50:12.323Z,73.92
2022-12-08T03:55:43.786Z,73.79
2022-12-08T04:01:14.987Z,73.37
2022-12-08T04:06:46.002Z,73.91
2022-12-08T04:12:17.395Z,73.91
2022-12-08T04:17:48.573Z,73.05
2022-12-08T04:23:20.094Z,73.12
2022-12-08T04:28:51.493Z,73.14
2022-12-08T04:34:22.700Z,73.19
2022-12-08T04:39:53.970Z,73.22
2022-12-08T04:45:25.477Z,73.82
2022-12-08T04:50:56.464Z,72.94
2022-12-08T04:56:27.983Z,73.16
2022-12-08T05:01:59.156Z,73.95
2022-12-08T05:07:30.356Z,73.97
2022-12-08T05:13:01.926Z,73.42
2022-12-08T05:18:33.884Z,73.55
2022-12-08T05:25:22.360Z,73.73
2022-12-08T05:30:53.994Z,73.48
2022-12-08T05:36:25.030Z,73.40
2022-12-08T05:41:56.503Z,73.33
2022-12-08T05:47:30.728Z,73.29
2022-12-08T05:53:05.883Z,73.04
2022-12-08T05:58:36.955Z,73.07
2022-12-08T06:04:09.202Z,72.83
2022-12-08T06:09:40.423Z,72.74
2022-12-08T06:15:11.723Z,72.94
2022-12-08T06:20:42.804Z,73.68
2022-12-08T06:26:15.511Z,73.30
2022-12-08T06:31:46.862Z,73.32
2022-12-08T06:37:18.896Z,73.13
2022-12-08T06:42:50.052Z,73.77
2022-12-08T06:48:21.348Z,72.83
2022-12-08T06:53:52.798Z,73.67
2022-12-08T06:59:26.231Z,73.46
2022-12-08T07:04:57.257Z,73.56
2022-12-08T07:10:28.554Z,73.46
2022-12-08T07:15:59.815Z,72.64
2022-12-08T07:21:31.017Z,72.86
2022-12-08T07:27:01.995Z,72.21
2022-12-08T07:32:33.190Z,72.80
2022-12-08T07:38:04.591Z,72.14
2022-12-08T07:43:35.777Z,71.90
2022-12-08T07:49:06.990Z,72.41
2022-12-08T07:54:37.917Z,72.28
2022-12-08T08:00:11.439Z,72.04
2022-12-08T08:05:48.389Z,72.45
2022-12-08T08:11:21.604Z,72.39
2022-12-08T08:16:53.258Z,72.88
2022-12-08T08:22:25.947Z,72.83
2022-12-08T08:27:57.244Z,72.31
2022-12-08T08:33:28.226Z,72.86
2022-12-08T08:38:59.241Z,72.57
2022-12-08T08:44:30.735Z,72.68
2022-12-08T08:50:02.400Z,72.26
2022-12-08T08:55:34.078Z,72.49
2022-12-08T09:01:05.432Z,72.46
2022-12-08T09:06:36.840Z,72.89
2022-12-08T09:12:08.521Z,72.44
2022-12-08T09:17:39.495Z,72.15
2022-12-08T09:23:10.440Z,72.98
2022-12-08T09:28:46.670Z,72.24
2022-12-08T09:34:18.200Z,72.70
2022-12-08T09:39:49.163Z,72.69
2022-12-08T09:45:21.778Z,72.59
2022-12-08T09:50:57.126Z,72.34
2022-12-08T09:56:33.229Z,72.80
2022-12-08T10:02:18.955Z,73.04
2022-12-08T10:08:09.151Z,72.75
2022-12-08T10:13:57.504Z,72.80
2022-12-08T10:19:29.055Z,72.99
2022-12-08T10:25:05.992Z,73.13
2022-12-08T10:30:37.271Z,72.45
2022-12-08T10:36:10.966Z,72.73
2022-12-08T10:41:42.028Z,72.67
2022-12-08T10:47:14.070Z,72.51
2022-12-08T10:52:46.762Z,72.69
2022-12-08T10:58:40.975Z,72.61
2022-12-08T11:04:44.637Z,73.13
2022-12-08T11:10:18.671Z,72.68
2022-12-08T11:15:50.521Z,73.12
2022-12-08T11:21:33.514Z,73.19
2022-12-08T11:27:05.836Z,73.42
2022-12-08T11:32:40.915Z,72.93
2022-12-08T11:38:23.969Z,72.61
2022-12-08T11:44:07.340Z,72.56
2022-12-08T11:49:40.731Z,72.51
2022-12-08T11:55:36.981Z,73.11
2022-12-08T12:01:19.556Z,73.27
2022-12-08T12:07:12.631Z,72.54
2022-12-08T12:13:05.078Z,73.06
2022-12-08T12:18:46.555Z,72.92
2022-12-08T12:24:37.982Z,73.06
2022-12-08T12:30:22.339Z,72.38
2022-12-08T12:35:56.416Z,72.77
2022-12-08T12:41:49.500Z,72.53
2022-12-08T12:47:56.945Z,72.40
2022-12-08T12:53:28.121Z,72.27
2022-12-08T12:59:46.985Z,72.83
2022-12-08T13:05:29.038Z,72.68
2022-12-08T13:11:06.112Z,72.54
2022-12-08T13:16:39.123Z,72.91
2022-12-08T13:22:30.119Z,72.80
2022-12-08T13:28:16.686Z,72.43
2022-12-08T13:33:47.825Z,72.46
2022-12-08T13:39:48.782Z,72.53
2022-12-08T13:46:12.195Z,72.67
2022-12-08T13:57:25.162Z,72.62
2022-12-08T14:02:59.210Z,72.16
2022-12-08T14:20:29.692Z,73.30
2022-12-08T14:26:01.598Z,72.61
2022-12-08T14:31:32.597Z,72.72
2022-12-08T14:37:04.094Z,72.74
2022-12-08T14:42:47.862Z,72.59
2022-12-08T14:48:28.052Z,72.41
2022-12-08T14:54:10.358Z,72.23
2022-12-08T14:59:43.012Z,72.46
2022-12-08T15:05:19.232Z,72.58
2022-12-08T15:11:21.956Z,72.49
2022-12-08T15:16:54.478Z,72.63
2022-12-08T15:22:27.113Z,72.24
2022-12-08T15:27:58.422Z,72.29
2022-12-08T15:33:29.409Z,72.42
2022-12-08T15:39:00.548Z,72.70
2022-12-08T15:44:32.970Z,72.61
2022-12-08T15:50:05.786Z,71.85
2022-12-08T15:55:39.197Z,72.38
2022-12-08T16:01:11.313Z,72.16
2022-12-08T16:07:20.341Z,72.11
2022-12-08T16:18:52.214Z,71.78
2022-12-08T16:24:23.799Z,72.26
2022-12-08T16:29:56.654Z,71.62
2022-12-08T16:35:27.783Z,71.79
2022-12-08T16:41:17.603Z,71.29
2022-12-08T16:46:49.066Z,71.80
2022-12-08T16:52:20.319Z,71.98
2022-12-08T16:57:51.603Z,70.82
2022-12-08T17:03:22.827Z,71.03
2022-12-08T17:08:54.222Z,71.11
2022-12-08T17:14:25.394Z,71.09
2022-12-08T17:19:56.366Z,70.75
2022-12-08T17:25:27.917Z,71.09
2022-12-08T17:31:00.394Z,71.25
2022-12-08T17:36:31.811Z,71.42
2022-12-08T17:42:03.077Z,70.86
2022-12-08T17:47:34.258Z,71.32
2022-12-08T17:53:05.574Z,71.11
2022-12-08T17:58:37.036Z,70.84
2022-12-08T18:04:10.004Z,70.49
2022-12-08T18:09:42.121Z,70.99
2022-12-08T18:15:17.208Z,70.29
2022-12-08T18:20:49.374Z,71.11
2022-12-08T18:26:21.007Z,70.95
2022-12-08T18:31:52.563Z,70.80
2022-12-08T18:37:23.870Z,70.67
2022-12-08T18:42:55.488Z,70.45
2022-12-08T18:48:26.769Z,70.95
2022-12-08T18:53:58.611Z,70.36
2022-12-08T18:59:29.898Z,70.50
2022-12-08T19:05:01.681Z,70.27
2022-12-08T19:10:36.022Z,70.11
2022-12-08T19:16:07.726Z,69.09
2022-12-08T19:21:44.531Z,68.89
2022-12-08T19:27:18.789Z,69.41
2022-12-08T19:32:50.800Z,69.63
2022-12-08T19:38:22.069Z,69.59
2022-12-08T19:44:11.829Z,68.97
2022-12-08T19:49:43.208Z,69.29
2022-12-08T19:55:14.610Z,69.27
2022-12-08T20:00:47.035Z,69.47
2022-12-08T20:06:19.376Z,69.51
2022-12-08T20:11:54.925Z,69.64
2022-12-08T20:17:26.317Z,69.25
2022-12-08T20:22:57.710Z,69.28
2022-12-08T20:28:28.807Z,69.55
2022-12-08T20:34:00.586Z,69.14
2022-12-08T20:39:32.328Z,68.83
2022-12-08T20:45:06.730Z,69.13
2022-12-08T20:50:38.122Z,69.37
2022-12-08T20:56:09.144Z,69.08
2022-12-08T21:01:40.376Z,68.52
2022-12-08T21:07:12.752Z,68.91
2022-12-08T21:12:44.309Z,68.96
2022-12-08T21:18:17.276Z,68.80
2022-12-08T21:23:48.653Z,69.31
2022-12-08T21:29:20.257Z,69.23
2022-12-08T21:34:51.502Z,69.23
2022-12-08T21:40:22.593Z,69.33
2022-12-08T21:45:54.254Z,69.53
2022-12-08T21:51:26.101Z,69.64
2022-12-08T21:56:57.748Z,69.05
2022-12-08T22:02:29.415Z,69.10
2022-12-08T22:08:01.348Z,68.90
2022-12-08T22:13:36.770Z,69.37
2022-12-08T22:19:08.783Z,69.20
2022-12-08T22:24:40.126Z,69.68
2022-12-08T22:30:12.490Z,69.33
2022-12-08T22:35:44.477Z,69.37
2022-12-08T22:41:16.783Z,68.67
2022-12-08T22:46:48.549Z,69.23
2022-12-08T22:52:20.279Z,68.64
2022-12-08T22:57:51.955Z,69.04
2022-12-08T23:03:23.155Z,69.26
2022-12-08T23:08:54.871Z,69.31
2022-12-08T23:14:26.133Z,68.99
2022-12-08T23:19:57.282Z,69.08
2022-12-08T23:25:29.060Z,68.72
2022-12-08T23:31:00.669Z,69.44
2022-12-08T23:36:32.018Z,69.04
2022-12-08T23:42:03.752Z,69.73
2022-12-08T23:47:35.782Z,69.04
2022-12-08T23:53:08.083Z,69.18
2022-12-08T23:58:40.330Z,68.98
